Iron Queen — MVNW9 — position and weather

sailwx.info

Track history (hours):
 
Tides and Currents Weather Stations Pressure Air Temp Water Temp Dewpoint Dewpoint Depression Visibility Wind Speed Wind Dir Waves Ship Positions

Iron Queen

Last reported at 2014-Nov-28 19:30 UTC. Time now 2014-Nov-28 20:24 UTC.
Position N 29°46' E 122°09'.

Length 280 m; draft 15.4 m.

Type: Cargo ship. MMSI: 234112000.

Date/timePositionNaut miles runAvg speedWind from/ knotsBaromVisibWave heightAir tempDewpointWater temp
2014-Nov-28 19:30N 29°46' E 122°09'0 0.0
2014-Nov-28 18:18N 29°46' E 122°09'0 0.0
2014-Nov-28 17:30N 29°46' E 122°09'0 0.0
2014-Nov-28 01:24N 29°46' E 122°09'0 0.0
2014-Nov-27 18:30N 29°46' E 122°09'0 0.0
2014-Nov-27 17:30N 29°46' E 122°09'0 0.0
2014-Nov-27 09:30N 29°46' E 122°09'0 0.0
2014-Nov-27 06:33N 29°46' E 122°09'2 1.7
2014-Nov-27 05:33N 29°47' E 122°09'6 6.1
2014-Nov-27 04:33N 29°48' E 122°16'8 7.6
2014-Nov-27 03:33N 29°44' E 122°23'5 5.5
2014-Nov-27 02:34N 29°43' E 122°30'3 3.4
2014-Nov-27 01:32N 29°46' E 122°32'1 0.5
2014-Nov-26 23:26N 29°46' E 122°33'0 0.0
2014-Nov-26 22:08N 29°46' E 122°33'0 0.0
2014-Nov-26 09:32N 29°46' E 122°33'0 0.0
2014-Nov-25 22:20N 29°46' E 122°33'0 0.0
2014-Nov-25 21:14N 29°46' E 122°33'0 0.1
2014-Nov-25 17:14N 29°46' E 122°33'0 0.1
2014-Nov-25 16:26N 29°46' E 122°33'0 0.0
2014-Nov-25 08:15N 29°46' E 122°33'1 1.3
2014-Nov-25 07:33N 29°45' E 122°33'3 2.7
2014-Nov-25 06:25N 29°45' E 122°37'6 7.1
2014-Nov-25 05:33N 29°49' E 122°42'  
Track history (hours):
 
Tides and Currents Weather Stations Pressure Air Temp Water Temp Dewpoint Dewpoint Depression Visibility Wind Speed Wind Dir Waves Ship Positions

Iron Queen

Last reported at 2014-Nov-28 19:30 UTC. Time now 2014-Nov-28 20:24 UTC.
Position N 29°46' E 122°09'.

Length 280 m; draft 15.4 m.

Type: Cargo ship. MMSI: 234112000.

Date/timePositionNaut miles runAvg speedWind from/ knotsBaromVisibWave heightAir tempDewpointWater temp
2014-Nov-28 19:30N 29°46' E 122°09'0 0.0
2014-Nov-28 18:18N 29°46' E 122°09'0 0.0
2014-Nov-28 17:30N 29°46' E 122°09'0 0.0
2014-Nov-28 01:24N 29°46' E 122°09'0 0.0
2014-Nov-27 18:30N 29°46' E 122°09'0 0.0
2014-Nov-27 17:30N 29°46' E 122°09'0 0.0
2014-Nov-27 09:30N 29°46' E 122°09'0 0.0
2014-Nov-27 06:33N 29°46' E 122°09'2 1.7
2014-Nov-27 05:33N 29°47' E 122°09'6 6.1
2014-Nov-27 04:33N 29°48' E 122°16'8 7.6
2014-Nov-27 03:33N 29°44' E 122°23'5 5.5
2014-Nov-27 02:34N 29°43' E 122°30'3 3.4
2014-Nov-27 01:32N 29°46' E 122°32'1 0.5
2014-Nov-26 23:26N 29°46' E 122°33'0 0.0
2014-Nov-26 22:08N 29°46' E 122°33'0 0.0
2014-Nov-26 09:32N 29°46' E 122°33'0 0.0
2014-Nov-25 22:20N 29°46' E 122°33'0 0.0
2014-Nov-25 21:14N 29°46' E 122°33'0 0.1
2014-Nov-25 17:14N 29°46' E 122°33'0 0.1
2014-Nov-25 16:26N 29°46' E 122°33'0 0.0
2014-Nov-25 08:15N 29°46' E 122°33'1 1.3
2014-Nov-25 07:33N 29°45' E 122°33'3 2.7
2014-Nov-25 06:25N 29°45' E 122°37'6 7.1
2014-Nov-25 05:33N 29°49' E 122°42'  

Dump ship's entire track history